メインページ
METAR-TAF:

METAR-TAF

空港 :

Yüksekova, トルコ

緯度: 37-33-06N, 経度: 44-14-01E, 海抜: 1950m

現時点の気象観測

当レポートは17時間20分前の10:50(UTC)に作成
北/北東の風 10kt、北/北西から東/北東の間で変化する
気温 18°C
湿度 22%
気圧 1030 hPa
視程10km以上
高度4000ftの雲はほとんどない

METAR: LTCW 131050Z 03010KT 340V070 9999 FEW040 18/M04 Q1030

時間: 07:10 (04:10 UTC)

予報

当レポートは2時間30分前の01:40(UTC)に作成
予報は14日の 03時(UTC)から 14日の 12時(UTC)まで有効
変向風 2kt
視程10km以上
1,500メートル以下は雲なし、積乱雲なし
14日の 07時(UTC)から 14日の 09時(UTC)まで徐々に
南/南西の風 12kt

TAF: LTCW 140140Z 1403/1412 VRB02KT CAVOK BECMG 1407/1409 20012KT

4,000以上の空港の気象観測と天気予報(METAR報とTAF報)

利用可能な観測所は地図上に黄色い丸と赤い丸で示す。

丸の上にカーソルを重ねると観測所名を参照できる。

次にクリックすると気象観測と天気予報を参照できる。

マップの切り替え:黒色「×」印の緑ボタンをクリックして拡大、「-」印の緑ボタンをクリックして縮小、緑色の三角印をクリックして隣りの地図に切り替え


METAR-TAF: